Mitchellsburg, KY (40452)

1:57 PM EDT on September 02, 2014 (GMT -0400)
Perryville, KY | Change Station
CLOSE
Current Station
Personal Weather Station
Location: Danville, KY
Elevation: 915 ft
Nearby Weather Stations

Elev 915 ft 37.65 °N, 84.92 °W | Updated 1 minute ago

Overcast
Overcast
86.9 °F
Feels Like 104 °F
N
7.6
Wind Variable Wind from South
Gusts 13.0 mph

Today
High -- | Low -- °F
--% Chance of Precip.
Yesterday
High -- | Low -- °F
Precip. -- in
7:10 AM 8:07 PM
First Quarter, 53% visible
Pressure 30.02 in
Visibility 10.0 miles
Clouds Scattered Clouds 3100 ft
Scattered Clouds 4300 ft
Mostly Cloudy 6500 ft
Heat Index 104 °F
Dew Point 81 °F
Humidity 82%
Rainfall 0.00 in
Snow Depth Not available.
UV 5 out of 12
Pollen 10.20 out of 12
Air Quality Not available.
Flu Activity Not available.
METAR KDVK 021735Z AUTO 25005KT 10SM SCT031 SCT043 BKN065 28/22 A3002 RMK AO2

More Conditions Fewer Conditions

Pressure 30.02 in
Visibility 10.0 miles
Clouds Scattered Clouds 3100 ft
Scattered Clouds 4300 ft
Mostly Cloudy 6500 ft
Heat Index 104 °F
Dew Point 81 °F
Humidity 82%
Rainfall 0.00 in
Snow Depth Not available.
UV 5 out of 12
Pollen 10.20 out of 12
Air Quality Not available.
Flu Activity Not available.
METAR KDVK 021735Z AUTO 25005KT 10SM SCT031 SCT043 BKN065 28/22 A3002 RMK AO2

More Conditions Fewer Conditions

10-Day Weather Forecast

Almanac

Astronomy

Sep. 02, 2014 Rise Set
Actual Time 7:10 AM EDT 8:07 PM EDT
Civil Twilight 6:44 AM EDT 8:34 PM EDT
Nautical Twilight 6:12 AM EDT 9:05 PM EDT
Astronomical Twilight 5:39 AM EDT 9:38 PM EDT
Moon 2:46 PM EDT 12:17 AM EDT
Length of Visible Light 13h 49m
Length of Day
12h 56m
Tomorrow will be 2m 19s shorter.
First Quarter, 53% of the Moon is Illuminated
Today
First Quarter
Sep 8
Full
Sep 15
Last Quarter
Sep 24
New
Oct 1
First Quarter

Today's Extremes

State Highs State Lows

Community

WunderPhotos

Upload Photos

1,749,724 photos uploaded!

WunderBlogs® & News

Nearby

Snow Depth

Station Depth Elevation
No new snow has been reported.

Earthquake Activity

City Distance Mag. Time & Date
No recent earthquake activity has been reported nearby.
Minimum magnitude displayed is 2.5.

Coastal Water Temperatures

Place Temperature
No Stations Reporting

Nearby Weather Stations